sensor_id;sensor_type;location;lat;lon;timestamp;pressure;altitude;pressure_sealevel;temperature;humidity
38253;BME280;24785;52.372;20.672;2022-10-31T00:09:18;101030.53;;;4.78;100.00
38253;BME280;24785;52.372;20.672;2022-10-31T00:19:19;101032.22;;;4.72;100.00
38253;BME280;24785;52.372;20.672;2022-10-31T00:29:20;101049.47;;;4.63;100.00
38253;BME280;24785;52.372;20.672;2022-10-31T00:39:20;101036.91;;;4.52;100.00
38253;BME280;24785;52.372;20.672;2022-10-31T00:49:21;101047.38;;;4.47;100.00
38253;BME280;24785;52.372;20.672;2022-10-31T00:59:22;101046.03;;;4.37;100.00
38253;BME280;24785;52.372;20.672;2022-10-31T01:09:23;101032.38;;;4.34;100.00
38253;BME280;24785;52.372;20.672;2022-10-31T01:19:24;101035.63;;;4.36;100.00
38253;BME280;24785;52.372;20.672;2022-10-31T01:29:24;101030.69;;;4.39;100.00
38253;BME280;24785;52.372;20.672;2022-10-31T01:39:25;101034.16;;;4.40;100.00
38253;BME280;24785;52.372;20.672;2022-10-31T02:00:08;101017.38;;;4.21;100.00
38253;BME280;24785;52.372;20.672;2022-10-31T02:10:09;101014.34;;;4.18;100.00
38253;BME280;24785;52.372;20.672;2022-10-31T02:20:19;101009.03;;;4.18;100.00
38253;BME280;24785;52.372;20.672;2022-10-31T02:30:36;101007.13;;;4.25;100.00
38253;BME280;24785;52.372;20.672;2022-10-31T02:40:53;101014.09;;;4.26;100.00
38253;BME280;24785;52.372;20.672;2022-10-31T02:51:02;101017.78;;;4.18;100.00
38253;BME280;24785;52.372;20.672;2022-10-31T03:11:08;101042.75;;;4.10;100.00
38253;BME280;24785;52.372;20.672;2022-10-31T03:21:13;101055.66;;;4.32;100.00
38253;BME280;24785;52.372;20.672;2022-10-31T03:31:17;101054.06;;;4.74;100.00
38253;BME280;24785;52.372;20.672;2022-10-31T03:41:23;101048.09;;;4.97;100.00
38253;BME280;24785;52.372;20.672;2022-10-31T03:51:35;101050.97;;;4.95;100.00
38253;BME280;24785;52.372;20.672;2022-10-31T04:01:43;101053.66;;;4.70;100.00
38253;BME280;24785;52.372;20.672;2022-10-31T04:11:51;101071.63;;;4.50;100.00
38253;BME280;24785;52.372;20.672;2022-10-31T04:21:53;101062.22;;;4.29;100.00
38253;BME280;24785;52.372;20.672;2022-10-31T04:31:54;101082.09;;;4.14;100.00
38253;BME280;24785;52.372;20.672;2022-10-31T04:41:55;101088.59;;;4.18;100.00
38253;BME280;24785;52.372;20.672;2022-10-31T04:51:55;101086.09;;;4.29;100.00
38253;BME280;24785;52.372;20.672;2022-10-31T05:01:56;101088.78;;;4.23;100.00
38253;BME280;24785;52.372;20.672;2022-10-31T05:11:57;101080.47;;;4.13;100.00
38253;BME280;24785;52.372;20.672;2022-10-31T05:21:58;101088.22;;;4.14;100.00
38253;BME280;24785;52.372;20.672;2022-10-31T05:31:59;101110.09;;;3.71;100.00
38253;BME280;24785;52.372;20.672;2022-10-31T05:42:00;101112.81;;;3.58;100.00
38253;BME280;24785;52.372;20.672;2022-10-31T05:52:01;101112.91;;;3.76;100.00
38253;BME280;24785;52.372;20.672;2022-10-31T06:02:01;101110.34;;;4.01;100.00
38253;BME280;24785;52.372;20.672;2022-10-31T06:12:02;101117.09;;;3.97;100.00
38253;BME280;24785;52.372;20.672;2022-10-31T06:22:03;101115.50;;;4.28;100.00
38253;BME280;24785;52.372;20.672;2022-10-31T06:32:04;101094.66;;;4.56;100.00
38253;BME280;24785;52.372;20.672;2022-10-31T06:42:05;101086.03;;;4.86;100.00
38253;BME280;24785;52.372;20.672;2022-10-31T06:52:06;101076.97;;;5.30;100.00
38253;BME280;24785;52.372;20.672;2022-10-31T07:02:09;101067.00;;;5.74;100.00
38253;BME280;24785;52.372;20.672;2022-10-31T07:12:10;101064.34;;;6.04;100.00
38253;BME280;24785;52.372;20.672;2022-10-31T07:22:11;101066.50;;;6.48;100.00
38253;BME280;24785;52.372;20.672;2022-10-31T07:32:12;101065.25;;;6.86;100.00
38253;BME280;24785;52.372;20.672;2022-10-31T07:42:13;101077.50;;;7.22;100.00
38253;BME280;24785;52.372;20.672;2022-10-31T07:52:14;101090.69;;;7.69;100.00
38253;BME280;24785;52.372;20.672;2022-10-31T08:02:15;101092.16;;;8.05;100.00
38253;BME280;24785;52.372;20.672;2022-10-31T08:12:15;101098.22;;;8.62;100.00
38253;BME280;24785;52.372;20.672;2022-10-31T08:22:16;101116.00;;;9.29;100.00
38253;BME280;24785;52.372;20.672;2022-10-31T08:32:17;101131.31;;;9.77;100.00
38253;BME280;24785;52.372;20.672;2022-10-31T08:42:17;101165.88;;;10.27;100.00
38253;BME280;24785;52.372;20.672;2022-10-31T08:52:22;101162.06;;;10.82;100.00
38253;BME280;24785;52.372;20.672;2022-10-31T09:02:23;101169.56;;;11.17;100.00
38253;BME280;24785;52.372;20.672;2022-10-31T09:12:24;101171.09;;;11.50;100.00
38253;BME280;24785;52.372;20.672;2022-10-31T09:22:24;101178.56;;;11.90;100.00
38253;BME280;24785;52.372;20.672;2022-10-31T09:32:25;101203.06;;;12.19;100.00
38253;BME280;24785;52.372;20.672;2022-10-31T09:52:38;101224.66;;;13.11;100.00
38253;BME280;24785;52.372;20.672;2022-10-31T10:02:59;101219.78;;;13.59;100.00
38253;BME280;24785;52.372;20.672;2022-10-31T10:34:12;101217.97;;;14.58;100.00
38253;BME280;24785;52.372;20.672;2022-10-31T10:44:17;101211.84;;;14.86;100.00
38253;BME280;24785;52.372;20.672;2022-10-31T10:54:38;101207.09;;;15.02;100.00
38253;BME280;24785;52.372;20.672;2022-10-31T11:04:41;101203.09;;;15.28;100.00
38253;BME280;24785;52.372;20.672;2022-10-31T11:15:20;101206.75;;;15.37;100.00
38253;BME280;24785;52.372;20.672;2022-10-31T11:25:23;101207.78;;;15.41;100.00
38253;BME280;24785;52.372;20.672;2022-10-31T11:35:24;101209.41;;;15.42;100.00
38253;BME280;24785;52.372;20.672;2022-10-31T11:45:29;101199.94;;;15.45;100.00
38253;BME280;24785;52.372;20.672;2022-10-31T11:55:34;101187.69;;;15.53;100.00
38253;BME280;24785;52.372;20.672;2022-10-31T12:05:38;101196.28;;;15.84;100.00
38253;BME280;24785;52.372;20.672;2022-10-31T12:15:44;101188.28;;;16.16;100.00
38253;BME280;24785;52.372;20.672;2022-10-31T12:26:09;101182.56;;;16.36;100.00
38253;BME280;24785;52.372;20.672;2022-10-31T12:56:53;101180.88;;;16.41;100.00
38253;BME280;24785;52.372;20.672;2022-10-31T13:07:03;101183.88;;;16.01;100.00
38253;BME280;24785;52.372;20.672;2022-10-31T13:17:19;101196.28;;;16.02;100.00
38253;BME280;24785;52.372;20.672;2022-10-31T13:58:26;101169.13;;;14.15;100.00
38253;BME280;24785;52.372;20.672;2022-10-31T14:08:34;101173.59;;;13.91;100.00
38253;BME280;24785;52.372;20.672;2022-10-31T14:18:38;101176.97;;;13.57;100.00
38253;BME280;24785;52.372;20.672;2022-10-31T14:28:39;101170.59;;;13.28;100.00
38253;BME280;24785;52.372;20.672;2022-10-31T14:39:08;101174.66;;;12.89;100.00
38253;BME280;24785;52.372;20.672;2022-10-31T14:59:19;101164.34;;;11.95;100.00
38253;BME280;24785;52.372;20.672;2022-10-31T15:09:32;101157.88;;;11.91;100.00
38253;BME280;24785;52.372;20.672;2022-10-31T15:19:34;101139.91;;;12.07;100.00
38253;BME280;24785;52.372;20.672;2022-10-31T15:29:53;101130.53;;;12.19;100.00
38253;BME280;24785;52.372;20.672;2022-10-31T15:39:54;101130.03;;;12.33;100.00
38253;BME280;24785;52.372;20.672;2022-10-31T15:49:57;101131.38;;;12.45;100.00
38253;BME280;24785;52.372;20.672;2022-10-31T15:59:58;101127.88;;;12.55;100.00
38253;BME280;24785;52.372;20.672;2022-10-31T16:10:01;101123.03;;;12.62;100.00
38253;BME280;24785;52.372;20.672;2022-10-31T16:20:04;101110.13;;;12.64;100.00
38253;BME280;24785;52.372;20.672;2022-10-31T16:30:35;101111.19;;;12.73;100.00
38253;BME280;24785;52.372;20.672;2022-10-31T16:40:40;101107.69;;;12.68;100.00
38253;BME280;24785;52.372;20.672;2022-10-31T16:50:42;101109.03;;;12.65;100.00
38253;BME280;24785;52.372;20.672;2022-10-31T17:00:44;101101.78;;;12.60;100.00
38253;BME280;24785;52.372;20.672;2022-10-31T17:10:47;101094.53;;;12.56;100.00
38253;BME280;24785;52.372;20.672;2022-10-31T17:20:55;101099.09;;;12.60;100.00
38253;BME280;24785;52.372;20.672;2022-10-31T17:30:56;101094.53;;;12.56;100.00
38253;BME280;24785;52.372;20.672;2022-10-31T17:40:58;101088.88;;;12.52;100.00
38253;BME280;24785;52.372;20.672;2022-10-31T17:51:05;101102.59;;;12.46;100.00
38253;BME280;24785;52.372;20.672;2022-10-31T18:01:11;101089.16;;;12.36;100.00
38253;BME280;24785;52.372;20.672;2022-10-31T18:11:16;101076.81;;;12.35;100.00
38253;BME280;24785;52.372;20.672;2022-10-31T18:21:19;101095.09;;;12.33;100.00
38253;BME280;24785;52.372;20.672;2022-10-31T18:31:21;101082.16;;;12.55;100.00
38253;BME280;24785;52.372;20.672;2022-10-31T18:41:22;101084.88;;;12.35;100.00
38253;BME280;24785;52.372;20.672;2022-10-31T18:51:23;101092.94;;;12.40;100.00
38253;BME280;24785;52.372;20.672;2022-10-31T19:01:23;101097.75;;;12.12;100.00
38253;BME280;24785;52.372;20.672;2022-10-31T19:11:24;101090.75;;;12.01;100.00
38253;BME280;24785;52.372;20.672;2022-10-31T19:21:26;101092.88;;;11.94;100.00
38253;BME280;24785;52.372;20.672;2022-10-31T19:31:27;101086.97;;;11.97;100.00
38253;BME280;24785;52.372;20.672;2022-10-31T19:41:29;101096.66;;;11.93;100.00
38253;BME280;24785;52.372;20.672;2022-10-31T19:51:30;101080.69;;;11.66;100.00
38253;BME280;24785;52.372;20.672;2022-10-31T20:01:31;101069.13;;;11.55;100.00
38253;BME280;24785;52.372;20.672;2022-10-31T20:11:32;101073.97;;;11.58;100.00
38253;BME280;24785;52.372;20.672;2022-10-31T20:21:37;101078.53;;;11.68;100.00
38253;BME280;24785;52.372;20.672;2022-10-31T20:31:38;101088.94;;;11.39;100.00
38253;BME280;24785;52.372;20.672;2022-10-31T20:41:39;101063.38;;;11.26;100.00
38253;BME280;24785;52.372;20.672;2022-10-31T20:51:40;101049.66;;;11.18;100.00
38253;BME280;24785;52.372;20.672;2022-10-31T21:01:41;101059.59;;;11.22;100.00
38253;BME280;24785;52.372;20.672;2022-10-31T21:11:41;101053.94;;;11.19;100.00
38253;BME280;24785;52.372;20.672;2022-10-31T21:21:42;101043.19;;;11.14;100.00
38253;BME280;24785;52.372;20.672;2022-10-31T21:31:43;101030.03;;;11.07;100.00
38253;BME280;24785;52.372;20.672;2022-10-31T21:41:45;101029.47;;;11.00;100.00
38253;BME280;24785;52.372;20.672;2022-10-31T21:51:45;101023.56;;;10.98;100.00
38253;BME280;24785;52.372;20.672;2022-10-31T22:01:47;101008.81;;;10.95;100.00
38253;BME280;24785;52.372;20.672;2022-10-31T22:11:48;101002.38;;;10.96;100.00
38253;BME280;24785;52.372;20.672;2022-10-31T22:21:49;101005.34;;;11.00;100.00
38253;BME280;24785;52.372;20.672;2022-10-31T22:31:50;100999.44;;;10.98;100.00
38253;BME280;24785;52.372;20.672;2022-10-31T22:41:52;100984.69;;;11.00;100.00
38253;BME280;24785;52.372;20.672;2022-10-31T22:51:52;100981.19;;;10.95;100.00
38253;BME280;24785;52.372;20.672;2022-10-31T23:01:54;100980.38;;;10.94;100.00
38253;BME280;24785;52.372;20.672;2022-10-31T23:11:55;100968.03;;;10.93;100.00
38253;BME280;24785;52.372;20.672;2022-10-31T23:22:16;100965.63;;;10.92;100.00
38253;BME280;24785;52.372;20.672;2022-10-31T23:32:22;100957.28;;;10.88;100.00
38253;BME280;24785;52.372;20.672;2022-10-31T23:42:25;100954.03;;;10.86;100.00
38253;BME280;24785;52.372;20.672;2022-10-31T23:52:26;100945.19;;;10.86;100.00
